sensor_id;sensor_type;location;lat;lon;timestamp;pressure;altitude;pressure_sealevel;temperature;humidity
32761;BME280;19126;47.472;7.850;2024-01-07T00:00:53;74406.66;;;-146.25;34.13
32761;BME280;19126;47.472;7.850;2024-01-07T00:03:21;74404.66;;;-146.25;34.53
32761;BME280;19126;47.472;7.850;2024-01-07T00:05:50;74406.66;;;-146.25;33.90
32761;BME280;19126;47.472;7.850;2024-01-07T00:08:17;74398.63;;;-146.25;33.82
32761;BME280;19126;47.472;7.850;2024-01-07T00:10:44;74410.66;;;-146.25;33.92
32761;BME280;19126;47.472;7.850;2024-01-07T00:13:11;74400.63;;;-146.25;33.85
32761;BME280;19126;47.472;7.850;2024-01-07T00:15:39;74406.66;;;-146.25;34.18
32761;BME280;19126;47.472;7.850;2024-01-07T00:18:06;74406.66;;;-146.25;34.15
32761;BME280;19126;47.472;7.850;2024-01-07T00:20:33;74404.66;;;-146.25;33.57
32761;BME280;19126;47.472;7.850;2024-01-07T00:23:02;74402.63;;;-146.25;33.25
32761;BME280;19126;47.472;7.850;2024-01-07T00:25:29;74410.66;;;-146.25;33.18
32761;BME280;19126;47.472;7.850;2024-01-07T00:27:56;74406.66;;;-146.25;33.65
32761;BME280;19126;47.472;7.850;2024-01-07T00:30:24;74404.66;;;-146.25;33.38
32761;BME280;19126;47.472;7.850;2024-01-07T00:32:51;74404.66;;;-146.25;33.08
32761;BME280;19126;47.472;7.850;2024-01-07T00:35:18;74400.63;;;-146.25;33.04
32761;BME280;19126;47.472;7.850;2024-01-07T00:37:46;74402.63;;;-146.25;32.97
32761;BME280;19126;47.472;7.850;2024-01-07T00:40:15;74408.66;;;-146.25;32.13
32761;BME280;19126;47.472;7.850;2024-01-07T00:42:42;74404.66;;;-146.25;32.66
32761;BME280;19126;47.472;7.850;2024-01-07T00:45:09;74410.66;;;-146.25;32.55
32761;BME280;19126;47.472;7.850;2024-01-07T00:47:36;74410.66;;;-146.25;31.78
32761;BME280;19126;47.472;7.850;2024-01-07T00:50:05;74412.66;;;-146.25;31.91
32761;BME280;19126;47.472;7.850;2024-01-07T00:52:32;74408.66;;;-146.25;31.92
32761;BME280;19126;47.472;7.850;2024-01-07T00:55:02;74402.63;;;-146.25;31.57
32761;BME280;19126;47.472;7.850;2024-01-07T00:57:32;74404.66;;;-146.25;30.90
32761;BME280;19126;47.472;7.850;2024-01-07T00:59:59;74402.63;;;-146.25;30.75
32761;BME280;19126;47.472;7.850;2024-01-07T01:02:27;74400.63;;;-146.25;31.25
32761;BME280;19126;47.472;7.850;2024-01-07T01:04:54;74402.63;;;-146.25;31.33
32761;BME280;19126;47.472;7.850;2024-01-07T01:07:22;74404.66;;;-146.25;30.41
32761;BME280;19126;47.472;7.850;2024-01-07T01:09:49;74406.66;;;-146.25;31.05
32761;BME280;19126;47.472;7.850;2024-01-07T01:12:16;74404.66;;;-146.25;30.87
32761;BME280;19126;47.472;7.850;2024-01-07T01:14:45;74398.63;;;-146.25;30.23
32761;BME280;19126;47.472;7.850;2024-01-07T01:17:12;74406.66;;;-146.25;30.67
32761;BME280;19126;47.472;7.850;2024-01-07T01:19:39;74406.66;;;-146.25;30.01
32761;BME280;19126;47.472;7.850;2024-01-07T01:22:06;74406.66;;;-146.25;30.45
32761;BME280;19126;47.472;7.850;2024-01-07T01:24:34;74408.66;;;-146.25;30.56
32761;BME280;19126;47.472;7.850;2024-01-07T01:27:01;74404.66;;;-146.25;30.13
32761;BME280;19126;47.472;7.850;2024-01-07T01:29:28;74406.66;;;-146.25;29.48
32761;BME280;19126;47.472;7.850;2024-01-07T01:31:57;74402.63;;;-146.25;29.39
32761;BME280;19126;47.472;7.850;2024-01-07T01:34:24;74404.66;;;-146.25;29.61
32761;BME280;19126;47.472;7.850;2024-01-07T01:36:50;74392.63;;;-146.25;30.14
32761;BME280;19126;47.472;7.850;2024-01-07T01:39:17;74398.63;;;-146.25;30.27
32761;BME280;19126;47.472;7.850;2024-01-07T01:41:44;74398.63;;;-146.25;29.62
32761;BME280;19126;47.472;7.850;2024-01-07T01:44:12;74400.63;;;-146.25;30.25
32761;BME280;19126;47.472;7.850;2024-01-07T01:46:39;74390.59;;;-146.25;30.04
32761;BME280;19126;47.472;7.850;2024-01-07T01:49:08;74392.63;;;-146.25;30.27
32761;BME280;19126;47.472;7.850;2024-01-07T01:51:36;74400.63;;;-146.25;30.42
32761;BME280;19126;47.472;7.850;2024-01-07T01:54:03;74402.63;;;-146.25;30.76
32761;BME280;19126;47.472;7.850;2024-01-07T01:56:32;74404.66;;;-146.25;30.47
32761;BME280;19126;47.472;7.850;2024-01-07T01:59:00;74402.63;;;-146.25;30.25
32761;BME280;19126;47.472;7.850;2024-01-07T02:04:10;74416.66;;;-146.25;29.86
32761;BME280;19126;47.472;7.850;2024-01-07T02:06:38;74412.66;;;-146.25;29.65
32761;BME280;19126;47.472;7.850;2024-01-07T02:09:05;74416.66;;;-146.25;29.98
32761;BME280;19126;47.472;7.850;2024-01-07T02:11:32;74416.66;;;-146.25;29.33
32761;BME280;19126;47.472;7.850;2024-01-07T02:14:00;74422.69;;;-146.25;29.93
32761;BME280;19126;47.472;7.850;2024-01-07T02:16:27;74428.69;;;-146.25;29.68
32761;BME280;19126;47.472;7.850;2024-01-07T02:18:54;74430.69;;;-146.25;29.02
32761;BME280;19126;47.472;7.850;2024-01-07T02:21:23;74430.69;;;-146.25;29.31
32761;BME280;19126;47.472;7.850;2024-01-07T02:23:50;74432.72;;;-146.25;28.61
32761;BME280;19126;47.472;7.850;2024-01-07T02:26:18;74426.69;;;-146.25;28.58
32761;BME280;19126;47.472;7.850;2024-01-07T02:28:46;74430.69;;;-146.25;28.46
32761;BME280;19126;47.472;7.850;2024-01-07T02:31:13;74432.72;;;-146.25;28.28
32761;BME280;19126;47.472;7.850;2024-01-07T02:33:40;74428.69;;;-146.25;28.66
32761;BME280;19126;47.472;7.850;2024-01-07T02:36:08;74430.69;;;-146.25;27.78
32761;BME280;19126;47.472;7.850;2024-01-07T02:38:35;74432.72;;;-146.25;27.80
32761;BME280;19126;47.472;7.850;2024-01-07T02:41:02;74430.69;;;-146.25;28.15
32761;BME280;19126;47.472;7.850;2024-01-07T02:43:31;74430.69;;;-146.25;27.64
32761;BME280;19126;47.472;7.850;2024-01-07T02:45:58;74426.69;;;-146.25;27.83
32761;BME280;19126;47.472;7.850;2024-01-07T02:48:26;74428.69;;;-146.25;27.92
32761;BME280;19126;47.472;7.850;2024-01-07T02:50:53;74428.69;;;-146.25;27.18
32761;BME280;19126;47.472;7.850;2024-01-07T02:53:20;74424.69;;;-146.25;27.62
32761;BME280;19126;47.472;7.850;2024-01-07T02:55:46;74408.66;;;-146.25;27.90
32761;BME280;19126;47.472;7.850;2024-01-07T02:58:14;74426.69;;;-146.25;28.08
32761;BME280;19126;47.472;7.850;2024-01-07T03:00:42;74428.69;;;-146.25;27.98
32761;BME280;19126;47.472;7.850;2024-01-07T03:03:10;74424.69;;;-146.25;28.67
32761;BME280;19126;47.472;7.850;2024-01-07T03:05:37;74424.69;;;-146.25;28.64
32761;BME280;19126;47.472;7.850;2024-01-07T03:08:05;74426.69;;;-146.25;28.05
32761;BME280;19126;47.472;7.850;2024-01-07T03:10:32;74424.69;;;-146.25;28.19
32761;BME280;19126;47.472;7.850;2024-01-07T03:13:00;74416.66;;;-146.25;28.75
32761;BME280;19126;47.472;7.850;2024-01-07T03:15:27;74422.69;;;-146.25;28.72
32761;BME280;19126;47.472;7.850;2024-01-07T03:17:57;74430.69;;;-146.25;29.21
32761;BME280;19126;47.472;7.850;2024-01-07T03:20:24;74432.72;;;-146.25;28.94
32761;BME280;19126;47.472;7.850;2024-01-07T03:22:51;74430.69;;;-146.25;28.37
32761;BME280;19126;47.472;7.850;2024-01-07T03:25:19;74432.72;;;-146.25;29.05
32761;BME280;19126;47.472;7.850;2024-01-07T03:27:46;74434.72;;;-146.25;28.61
32761;BME280;19126;47.472;7.850;2024-01-07T03:30:13;74428.69;;;-146.25;29.55
32761;BME280;19126;47.472;7.850;2024-01-07T03:32:41;74434.72;;;-146.25;29.63
32761;BME280;19126;47.472;7.850;2024-01-07T03:35:12;74438.72;;;-146.25;29.20
32761;BME280;19126;47.472;7.850;2024-01-07T03:37:39;74444.72;;;-146.25;28.95
32761;BME280;19126;47.472;7.850;2024-01-07T03:40:10;74444.72;;;-146.25;29.64
32761;BME280;19126;47.472;7.850;2024-01-07T03:42:38;74432.72;;;-146.25;29.55
32761;BME280;19126;47.472;7.850;2024-01-07T03:45:06;74440.72;;;-146.25;30.02
32761;BME280;19126;47.472;7.850;2024-01-07T03:47:33;74444.72;;;-146.25;29.76
32761;BME280;19126;47.472;7.850;2024-01-07T03:50:00;74452.75;;;-146.25;30.17
32761;BME280;19126;47.472;7.850;2024-01-07T03:52:29;74456.75;;;-146.25;29.85
32761;BME280;19126;47.472;7.850;2024-01-07T03:54:56;74454.75;;;-146.25;29.38
32761;BME280;19126;47.472;7.850;2024-01-07T03:57:24;74452.75;;;-146.25;29.47
32761;BME280;19126;47.472;7.850;2024-01-07T03:59:51;74454.75;;;-146.25;29.18
32761;BME280;19126;47.472;7.850;2024-01-07T04:02:18;74458.75;;;-146.25;29.57
32761;BME280;19126;47.472;7.850;2024-01-07T04:04:45;74458.75;;;-146.25;29.83
32761;BME280;19126;47.472;7.850;2024-01-07T04:07:12;74452.75;;;-146.25;28.97
32761;BME280;19126;47.472;7.850;2024-01-07T04:09:43;74456.75;;;-146.25;29.01
32761;BME280;19126;47.472;7.850;2024-01-07T04:12:10;74456.75;;;-146.25;29.28
32761;BME280;19126;47.472;7.850;2024-01-07T04:14:37;74458.75;;;-146.25;28.85
32761;BME280;19126;47.472;7.850;2024-01-07T04:17:05;74458.75;;;-146.25;29.43
32761;BME280;19126;47.472;7.850;2024-01-07T04:19:36;74458.75;;;-146.25;29.36
32761;BME280;19126;47.472;7.850;2024-01-07T04:22:04;74458.75;;;-146.25;28.78
32761;BME280;19126;47.472;7.850;2024-01-07T04:24:31;74458.75;;;-146.25;28.72
32761;BME280;19126;47.472;7.850;2024-01-07T04:26:59;74468.78;;;-146.25;28.51
32761;BME280;19126;47.472;7.850;2024-01-07T04:29:27;74464.78;;;-146.25;28.53
32761;BME280;19126;47.472;7.850;2024-01-07T04:31:54;74468.78;;;-146.25;29.02
32761;BME280;19126;47.472;7.850;2024-01-07T04:34:21;74462.78;;;-146.25;28.45
32761;BME280;19126;47.472;7.850;2024-01-07T04:36:48;74464.78;;;-146.25;28.15
32761;BME280;19126;47.472;7.850;2024-01-07T04:39:15;74464.78;;;-146.25;28.63
32761;BME280;19126;47.472;7.850;2024-01-07T04:41:43;74464.78;;;-146.25;28.98
32761;BME280;19126;47.472;7.850;2024-01-07T04:44:11;74462.78;;;-146.25;29.13
32761;BME280;19126;47.472;7.850;2024-01-07T04:46:39;74466.78;;;-146.25;29.39
32761;BME280;19126;47.472;7.850;2024-01-07T04:49:07;74474.81;;;-146.25;28.76
32761;BME280;19126;47.472;7.850;2024-01-07T04:51:34;74474.81;;;-146.25;29.01
32761;BME280;19126;47.472;7.850;2024-01-07T04:54:02;74476.81;;;-146.25;29.90
32761;BME280;19126;47.472;7.850;2024-01-07T04:56:29;74476.81;;;-146.25;29.67
32761;BME280;19126;47.472;7.850;2024-01-07T04:58:57;74476.81;;;-146.25;29.91
32761;BME280;19126;47.472;7.850;2024-01-07T05:01:26;74476.81;;;-146.25;29.69
32761;BME280;19126;47.472;7.850;2024-01-07T05:03:53;74480.81;;;-146.25;30.25
32761;BME280;19126;47.472;7.850;2024-01-07T05:06:20;74482.81;;;-146.25;30.43
32761;BME280;19126;47.472;7.850;2024-01-07T05:08:48;74482.81;;;-146.25;30.85
32761;BME280;19126;47.472;7.850;2024-01-07T05:11:15;74486.84;;;-146.25;30.53
32761;BME280;19126;47.472;7.850;2024-01-07T05:13:43;74488.84;;;-146.25;30.69
32761;BME280;19126;47.472;7.850;2024-01-07T05:16:18;74490.84;;;-146.25;30.85
32761;BME280;19126;47.472;7.850;2024-01-07T05:18:47;74488.84;;;-146.25;31.06
32761;BME280;19126;47.472;7.850;2024-01-07T05:21:15;74488.84;;;-146.25;31.28
32761;BME280;19126;47.472;7.850;2024-01-07T05:23:42;74494.84;;;-146.25;31.37
32761;BME280;19126;47.472;7.850;2024-01-07T05:26:09;74498.84;;;-146.25;31.90
32761;BME280;19126;47.472;7.850;2024-01-07T05:28:37;74502.88;;;-146.25;31.41
32761;BME280;19126;47.472;7.850;2024-01-07T05:31:04;74496.84;;;-146.25;31.31
32761;BME280;19126;47.472;7.850;2024-01-07T05:33:31;74496.84;;;-146.25;31.38
32761;BME280;19126;47.472;7.850;2024-01-07T05:36:00;74502.88;;;-146.25;31.57
32761;BME280;19126;47.472;7.850;2024-01-07T05:38:27;74504.88;;;-146.25;31.98
32761;BME280;19126;47.472;7.850;2024-01-07T05:40:54;74508.88;;;-146.25;32.39
32761;BME280;19126;47.472;7.850;2024-01-07T05:43:21;74508.88;;;-146.25;32.48
32761;BME280;19126;47.472;7.850;2024-01-07T05:45:48;74506.88;;;-146.25;32.54
32761;BME280;19126;47.472;7.850;2024-01-07T05:48:16;74506.88;;;-146.25;32.48
32761;BME280;19126;47.472;7.850;2024-01-07T05:50:43;74508.88;;;-146.25;32.17
32761;BME280;19126;47.472;7.850;2024-01-07T05:53:12;74502.88;;;-146.25;32.22
32761;BME280;19126;47.472;7.850;2024-01-07T05:55:39;74498.84;;;-146.25;33.12
32761;BME280;19126;47.472;7.850;2024-01-07T05:58:06;74504.88;;;-146.25;32.96
32761;BME280;19126;47.472;7.850;2024-01-07T06:00:33;74510.88;;;-146.25;32.90
32761;BME280;19126;47.472;7.850;2024-01-07T06:03:00;74508.88;;;-146.25;33.19
32761;BME280;19126;47.472;7.850;2024-01-07T06:05:28;74512.91;;;-146.25;33.21
32761;BME280;19126;47.472;7.850;2024-01-07T06:07:56;74508.88;;;-146.25;33.72
32761;BME280;19126;47.472;7.850;2024-01-07T06:10:25;74514.91;;;-146.25;33.95
32761;BME280;19126;47.472;7.850;2024-01-07T06:12:52;74510.88;;;-146.25;33.91
32761;BME280;19126;47.472;7.850;2024-01-07T06:15:19;74510.88;;;-146.25;33.92
32761;BME280;19126;47.472;7.850;2024-01-07T06:17:46;74506.88;;;-146.25;34.39
32761;BME280;19126;47.472;7.850;2024-01-07T06:20:14;74500.88;;;-146.25;33.87
32761;BME280;19126;47.472;7.850;2024-01-07T06:22:42;74512.91;;;-146.25;34.91
32761;BME280;19126;47.472;7.850;2024-01-07T06:25:09;74514.91;;;-146.25;34.74
32761;BME280;19126;47.472;7.850;2024-01-07T06:27:38;74514.91;;;-146.25;34.56
32761;BME280;19126;47.472;7.850;2024-01-07T06:30:07;74514.91;;;-146.25;34.79
32761;BME280;19126;47.472;7.850;2024-01-07T06:32:35;74516.91;;;-146.25;34.53
32761;BME280;19126;47.472;7.850;2024-01-07T06:35:03;74516.91;;;-146.25;34.53
32761;BME280;19126;47.472;7.850;2024-01-07T06:37:30;74498.84;;;-146.25;34.32
32761;BME280;19126;47.472;7.850;2024-01-07T06:39:58;74508.88;;;-146.25;34.94
32761;BME280;19126;47.472;7.850;2024-01-07T06:42:25;74508.88;;;-146.25;35.01
32761;BME280;19126;47.472;7.850;2024-01-07T06:44:53;74528.94;;;-146.25;35.90
32761;BME280;19126;47.472;7.850;2024-01-07T06:47:21;74532.94;;;-146.25;35.57
32761;BME280;19126;47.472;7.850;2024-01-07T06:49:48;74538.94;;;-146.25;36.12
32761;BME280;19126;47.472;7.850;2024-01-07T06:52:16;74536.94;;;-146.25;35.73
32761;BME280;19126;47.472;7.850;2024-01-07T06:54:45;74544.97;;;-146.25;36.07
32761;BME280;19126;47.472;7.850;2024-01-07T06:57:13;74550.97;;;-146.25;35.19
32761;BME280;19126;47.472;7.850;2024-01-07T06:59:40;74555.00;;;-146.25;35.45
32761;BME280;19126;47.472;7.850;2024-01-07T07:02:09;74555.00;;;-146.25;35.90
32761;BME280;19126;47.472;7.850;2024-01-07T07:04:36;74561.00;;;-146.25;36.09
32761;BME280;19126;47.472;7.850;2024-01-07T07:07:04;74569.03;;;-146.25;35.82
32761;BME280;19126;47.472;7.850;2024-01-07T07:09:31;74563.00;;;-146.25;35.77
32761;BME280;19126;47.472;7.850;2024-01-07T07:11:59;74555.00;;;-146.25;35.87
32761;BME280;19126;47.472;7.850;2024-01-07T07:14:26;74571.03;;;-146.25;36.58
32761;BME280;19126;47.472;7.850;2024-01-07T07:16:53;74571.03;;;-146.25;36.93
32761;BME280;19126;47.472;7.850;2024-01-07T07:19:22;74571.03;;;-146.25;36.52
32761;BME280;19126;47.472;7.850;2024-01-07T07:21:49;74579.06;;;-146.25;36.63
32761;BME280;19126;47.472;7.850;2024-01-07T07:24:16;74581.06;;;-146.25;36.55
32761;BME280;19126;47.472;7.850;2024-01-07T07:26:43;74579.06;;;-146.25;36.20
32761;BME280;19126;47.472;7.850;2024-01-07T07:29:10;74583.06;;;-146.25;36.22
32761;BME280;19126;47.472;7.850;2024-01-07T07:31:38;74587.06;;;-146.25;36.55
32761;BME280;19126;47.472;7.850;2024-01-07T07:34:08;74583.06;;;-146.25;35.69
32761;BME280;19126;47.472;7.850;2024-01-07T07:36:37;74591.06;;;-146.25;35.77
32761;BME280;19126;47.472;7.850;2024-01-07T07:39:05;74593.09;;;-146.25;35.99
32761;BME280;19126;47.472;7.850;2024-01-07T07:41:33;74591.06;;;-146.25;36.01
32761;BME280;19126;47.472;7.850;2024-01-07T07:44:00;74583.06;;;-146.25;36.22
32761;BME280;19126;47.472;7.850;2024-01-07T07:46:27;74593.09;;;-146.25;36.25
32761;BME280;19126;47.472;7.850;2024-01-07T07:48:54;74587.06;;;-146.25;35.82
32761;BME280;19126;47.472;7.850;2024-01-07T07:51:21;74589.06;;;-146.25;35.60
32761;BME280;19126;47.472;7.850;2024-01-07T07:53:50;74587.06;;;-146.25;35.49
32761;BME280;19126;47.472;7.850;2024-01-07T07:56:17;74585.06;;;-146.25;35.75
32761;BME280;19126;47.472;7.850;2024-01-07T07:58:45;74581.06;;;-146.25;35.57
32761;BME280;19126;47.472;7.850;2024-01-07T08:01:12;74579.06;;;-146.25;35.48
32761;BME280;19126;47.472;7.850;2024-01-07T08:03:39;74569.03;;;-146.25;35.36
32761;BME280;19126;47.472;7.850;2024-01-07T08:06:07;74567.03;;;-146.25;35.76
32761;BME280;19126;47.472;7.850;2024-01-07T08:08:34;74557.00;;;-146.25;35.90
32761;BME280;19126;47.472;7.850;2024-01-07T08:11:03;74569.03;;;-146.25;36.49
32761;BME280;19126;47.472;7.850;2024-01-07T08:13:35;74569.03;;;-146.25;36.55
32761;BME280;19126;47.472;7.850;2024-01-07T08:16:04;74573.03;;;-146.25;36.65
32761;BME280;19126;47.472;7.850;2024-01-07T08:18:32;74563.00;;;-146.25;36.38
32761;BME280;19126;47.472;7.850;2024-01-07T08:21:00;74561.00;;;-146.25;36.47
32761;BME280;19126;47.472;7.850;2024-01-07T08:23:27;74553.00;;;-146.25;36.71
32761;BME280;19126;47.472;7.850;2024-01-07T08:25:54;74548.97;;;-146.25;36.47
32761;BME280;19126;47.472;7.850;2024-01-07T08:28:23;74553.00;;;-146.25;36.60
32761;BME280;19126;47.472;7.850;2024-01-07T08:30:50;74550.97;;;-146.25;36.72
32761;BME280;19126;47.472;7.850;2024-01-07T08:33:19;74544.97;;;-146.25;36.58
32761;BME280;19126;47.472;7.850;2024-01-07T08:35:46;74544.97;;;-146.25;37.11
32761;BME280;19126;47.472;7.850;2024-01-07T08:38:14;74550.97;;;-146.25;37.24
32761;BME280;19126;47.472;7.850;2024-01-07T08:40:41;74555.00;;;-146.25;37.31
32761;BME280;19126;47.472;7.850;2024-01-07T08:43:08;74563.00;;;-146.25;37.22
32761;BME280;19126;47.472;7.850;2024-01-07T08:45:38;74579.06;;;-146.25;38.12
32761;BME280;19126;47.472;7.850;2024-01-07T08:48:06;74589.06;;;-146.25;38.23
32761;BME280;19126;47.472;7.850;2024-01-07T08:50:34;74585.06;;;-146.25;38.37
32761;BME280;19126;47.472;7.850;2024-01-07T08:53:01;74589.06;;;-146.25;38.24
32761;BME280;19126;47.472;7.850;2024-01-07T08:55:28;74581.06;;;-146.25;38.56
32761;BME280;19126;47.472;7.850;2024-01-07T08:57:56;74577.03;;;-146.25;38.54
32761;BME280;19126;47.472;7.850;2024-01-07T09:00:23;74571.03;;;-146.25;38.23
32761;BME280;19126;47.472;7.850;2024-01-07T09:02:54;74579.06;;;-146.25;38.49
32761;BME280;19126;47.472;7.850;2024-01-07T09:05:21;74583.06;;;-146.25;38.21
32761;BME280;19126;47.472;7.850;2024-01-07T09:07:50;74585.06;;;-146.25;38.30
32761;BME280;19126;47.472;7.850;2024-01-07T09:10:17;74581.06;;;-146.25;38.58
32761;BME280;19126;47.472;7.850;2024-01-07T09:12:45;74585.06;;;-146.25;38.17
32761;BME280;19126;47.472;7.850;2024-01-07T09:15:12;74571.03;;;-146.25;38.12
32761;BME280;19126;47.472;7.850;2024-01-07T09:17:40;74577.03;;;-146.25;38.38
32761;BME280;19126;47.472;7.850;2024-01-07T09:20:11;74579.06;;;-146.25;38.68
32761;BME280;19126;47.472;7.850;2024-01-07T09:22:38;74587.06;;;-146.25;39.33
32761;BME280;19126;47.472;7.850;2024-01-07T09:25:07;74587.06;;;-146.25;39.51
32761;BME280;19126;47.472;7.850;2024-01-07T09:27:35;74591.06;;;-146.25;39.57
32761;BME280;19126;47.472;7.850;2024-01-07T09:30:03;74587.06;;;-146.25;39.60
32761;BME280;19126;47.472;7.850;2024-01-07T09:32:31;74591.06;;;-146.25;40.19
32761;BME280;19126;47.472;7.850;2024-01-07T09:34:59;74587.06;;;-146.25;40.45
32761;BME280;19126;47.472;7.850;2024-01-07T09:37:28;74585.06;;;-146.25;40.21
32761;BME280;19126;47.472;7.850;2024-01-07T09:39:55;74575.03;;;-146.25;40.89
32761;BME280;19126;47.472;7.850;2024-01-07T09:42:22;74577.03;;;-146.25;40.56
32761;BME280;19126;47.472;7.850;2024-01-07T09:44:51;74587.06;;;-146.25;41.29
32761;BME280;19126;47.472;7.850;2024-01-07T09:47:18;74587.06;;;-146.25;42.04
32761;BME280;19126;47.472;7.850;2024-01-07T09:49:46;74589.06;;;-146.25;42.92
32761;BME280;19126;47.472;7.850;2024-01-07T09:52:13;74593.09;;;-146.25;43.70
32761;BME280;19126;47.472;7.850;2024-01-07T09:54:49;74593.09;;;-146.25;44.33
32761;BME280;19126;47.472;7.850;2024-01-07T09:57:18;74591.06;;;-146.25;45.02
32761;BME280;19126;47.472;7.850;2024-01-07T09:59:46;74583.06;;;-146.25;45.91
32761;BME280;19126;47.472;7.850;2024-01-07T10:02:13;74577.03;;;-146.25;46.72
32761;BME280;19126;47.472;7.850;2024-01-07T10:04:42;74575.03;;;-146.25;48.50
32761;BME280;19126;47.472;7.850;2024-01-07T10:07:11;74569.03;;;-146.25;49.72
32761;BME280;19126;47.472;7.850;2024-01-07T10:09:42;74573.03;;;-146.25;51.13
32761;BME280;19126;47.472;7.850;2024-01-07T10:12:10;74561.00;;;-146.25;52.42
32761;BME280;19126;47.472;7.850;2024-01-07T10:14:38;74561.00;;;-146.25;51.69
32761;BME280;19126;47.472;7.850;2024-01-07T10:17:15;74544.97;;;-146.25;52.72
32761;BME280;19126;47.472;7.850;2024-01-07T10:19:44;74540.97;;;-146.25;52.08
32761;BME280;19126;47.472;7.850;2024-01-07T10:22:17;74528.94;;;-146.25;52.81
32761;BME280;19126;47.472;7.850;2024-01-07T10:24:47;74528.94;;;-146.25;53.35
32761;BME280;19126;47.472;7.850;2024-01-07T10:27:15;74522.91;;;-146.25;54.04
32761;BME280;19126;47.472;7.850;2024-01-07T10:29:42;74514.91;;;-146.25;54.40
32761;BME280;19126;47.472;7.850;2024-01-07T10:32:09;74504.88;;;-146.25;55.18
32761;BME280;19126;47.472;7.850;2024-01-07T10:34:36;74494.84;;;-146.25;55.66
32761;BME280;19126;47.472;7.850;2024-01-07T10:37:04;74494.84;;;-146.25;56.89
32761;BME280;19126;47.472;7.850;2024-01-07T10:39:31;74484.81;;;-146.25;59.86
32761;BME280;19126;47.472;7.850;2024-01-07T10:42:01;74486.84;;;-146.25;62.77
32761;BME280;19126;47.472;7.850;2024-01-07T10:44:30;74488.84;;;-146.25;63.89
32761;BME280;19126;47.472;7.850;2024-01-07T10:46:59;74482.81;;;-146.25;64.38
32761;BME280;19126;47.472;7.850;2024-01-07T10:49:28;74468.78;;;-146.25;64.56
32761;BME280;19126;47.472;7.850;2024-01-07T10:52:03;74474.81;;;-146.25;66.05
32761;BME280;19126;47.472;7.850;2024-01-07T10:54:33;74482.81;;;-146.25;67.03
32761;BME280;19126;47.472;7.850;2024-01-07T10:57:09;74472.81;;;-146.25;66.52
32761;BME280;19126;47.472;7.850;2024-01-07T10:59:41;74464.78;;;-146.25;65.70
32761;BME280;19126;47.472;7.850;2024-01-07T11:02:09;74462.78;;;-146.25;65.17
32761;BME280;19126;47.472;7.850;2024-01-07T11:04:45;74454.75;;;-146.25;64.68
32761;BME280;19126;47.472;7.850;2024-01-07T11:07:27;74458.75;;;-146.25;63.79
32761;BME280;19126;47.472;7.850;2024-01-07T11:10:06;74448.75;;;-146.25;62.93
32761;BME280;19126;47.472;7.850;2024-01-07T11:12:36;74446.75;;;-146.25;62.47
32761;BME280;19126;47.472;7.850;2024-01-07T11:15:04;74454.75;;;-146.25;62.12
32761;BME280;19126;47.472;7.850;2024-01-07T11:17:41;74450.75;;;-146.25;61.87
32761;BME280;19126;47.472;7.850;2024-01-07T11:20:20;74456.75;;;-146.25;61.54
32761;BME280;19126;47.472;7.850;2024-01-07T11:22:48;74452.75;;;-146.25;61.32
32761;BME280;19126;47.472;7.850;2024-01-07T11:25:29;74462.78;;;-146.25;60.86
32761;BME280;19126;47.472;7.850;2024-01-07T11:28:01;74462.78;;;-146.25;59.74
32761;BME280;19126;47.472;7.850;2024-01-07T11:30:29;74462.78;;;-146.25;58.90
32761;BME280;19126;47.472;7.850;2024-01-07T11:33:00;74460.78;;;-146.25;58.79
32761;BME280;19126;47.472;7.850;2024-01-07T11:35:55;74456.75;;;-146.25;59.84
32761;BME280;19126;47.472;7.850;2024-01-07T11:38:23;74458.75;;;-146.25;59.88
32761;BME280;19126;47.472;7.850;2024-01-07T11:40:51;74460.78;;;-146.25;59.87
32761;BME280;19126;47.472;7.850;2024-01-07T11:43:20;74450.75;;;-146.25;59.20
32761;BME280;19126;47.472;7.850;2024-01-07T11:45:49;74444.72;;;-146.25;59.95
32761;BME280;19126;47.472;7.850;2024-01-07T11:48:17;74446.75;;;-146.25;61.43
32761;BME280;19126;47.472;7.850;2024-01-07T11:50:45;74438.72;;;-146.25;61.55
32761;BME280;19126;47.472;7.850;2024-01-07T11:53:12;74428.69;;;-146.25;62.41
32761;BME280;19126;47.472;7.850;2024-01-07T11:55:39;74424.69;;;-146.25;63.46
32761;BME280;19126;47.472;7.850;2024-01-07T11:58:07;74432.72;;;-146.25;64.71
32761;BME280;19126;47.472;7.850;2024-01-07T12:00:35;74438.72;;;-146.25;65.44
32761;BME280;19126;47.472;7.850;2024-01-07T12:03:04;74428.69;;;-146.25;65.37
32761;BME280;19126;47.472;7.850;2024-01-07T12:05:31;74446.75;;;-146.25;66.69
32761;BME280;19126;47.472;7.850;2024-01-07T12:08:00;74438.72;;;-146.25;66.74
32761;BME280;19126;47.472;7.850;2024-01-07T12:10:29;74432.72;;;-146.25;67.62
32761;BME280;19126;47.472;7.850;2024-01-07T12:12:56;74434.72;;;-146.25;68.50
32761;BME280;19126;47.472;7.850;2024-01-07T12:15:24;74426.69;;;-146.25;68.37
32761;BME280;19126;47.472;7.850;2024-01-07T12:17:59;74444.72;;;-146.25;69.76
32761;BME280;19126;47.472;7.850;2024-01-07T12:20:27;74450.75;;;-146.25;69.65
32761;BME280;19126;47.472;7.850;2024-01-07T12:23:04;74450.75;;;-146.25;69.10
32761;BME280;19126;47.472;7.850;2024-01-07T12:25:32;74460.78;;;-146.25;69.20
32761;BME280;19126;47.472;7.850;2024-01-07T12:28:00;74458.75;;;-146.25;69.16
32761;BME280;19126;47.472;7.850;2024-01-07T12:30:28;74458.75;;;-146.25;69.53
32761;BME280;19126;47.472;7.850;2024-01-07T12:32:58;74458.75;;;-146.25;68.36
32761;BME280;19126;47.472;7.850;2024-01-07T12:35:26;74456.75;;;-146.25;68.15
32761;BME280;19126;47.472;7.850;2024-01-07T12:37:53;74458.75;;;-146.25;68.04
32761;BME280;19126;47.472;7.850;2024-01-07T12:40:22;74462.78;;;-146.25;67.99
32761;BME280;19126;47.472;7.850;2024-01-07T12:42:50;74460.78;;;-146.25;68.13
32761;BME280;19126;47.472;7.850;2024-01-07T12:45:18;74462.78;;;-146.25;68.43
32761;BME280;19126;47.472;7.850;2024-01-07T12:47:45;74458.75;;;-146.25;68.17